createdAt,value
2019-03-03T00:01:43.576Z,1.40
2019-03-03T00:04:13.579Z,1.60
2019-03-03T00:06:43.332Z,1.77
2019-03-03T00:09:13.213Z,1.63
2019-03-03T00:11:43.230Z,1.90
2019-03-03T00:14:12.890Z,1.73
2019-03-03T00:16:42.781Z,1.87
2019-03-03T00:19:12.812Z,2.00
2019-03-03T00:21:42.571Z,1.40
2019-03-03T00:24:12.292Z,1.57
2019-03-03T00:26:43.299Z,1.80
2019-03-03T00:29:12.974Z,1.43
2019-03-03T00:31:42.912Z,1.37
2019-03-03T00:34:12.977Z,1.27
2019-03-03T00:37:02.048Z,2.50
2019-03-03T00:39:45.165Z,2.03
2019-03-03T00:42:33.737Z,1.50
2019-03-03T00:45:28.653Z,1.20
2019-03-03T00:48:15.932Z,1.80
2019-03-03T00:51:11.751Z,1.60
2019-03-03T00:54:06.197Z,1.90
2019-03-03T00:56:44.933Z,2.03
2019-03-03T00:59:26.138Z,1.30
2019-03-03T01:02:05.890Z,1.80
2019-03-03T01:05:06.318Z,1.70
2019-03-03T01:07:58.235Z,1.63
2019-03-03T01:10:49.613Z,1.80
2019-03-03T01:13:50.474Z,1.70
2019-03-03T01:16:35.800Z,1.73
2019-03-03T01:19:30.867Z,2.83
2019-03-03T01:22:22.372Z,1.97
2019-03-03T01:24:58.424Z,1.73
2019-03-03T01:27:28.634Z,2.03
2019-03-03T01:29:58.442Z,2.00
2019-03-03T01:32:28.981Z,1.37
2019-03-03T01:34:58.749Z,2.00
2019-03-03T01:37:28.612Z,2.70
2019-03-03T01:39:59.598Z,1.20
2019-03-03T01:42:29.343Z,1.97
2019-03-03T01:44:59.096Z,1.60
2019-03-03T01:47:29.134Z,2.17
2019-03-03T01:49:58.853Z,1.97
2019-03-03T01:52:29.105Z,1.77
2019-03-03T01:55:00.305Z,2.10
2019-03-03T01:57:29.994Z,1.90
2019-03-03T01:59:59.980Z,1.70
2019-03-03T02:02:30.056Z,1.63
2019-03-03T02:04:59.778Z,2.27
2019-03-03T02:07:29.495Z,2.20
2019-03-03T02:09:59.492Z,1.87
2019-03-03T02:12:29.344Z,1.87
2019-03-03T02:14:59.043Z,1.90
2019-03-03T02:17:29.102Z,1.93
2019-03-03T02:19:58.946Z,1.77
2019-03-03T02:22:28.629Z,1.70
2019-03-03T02:24:58.683Z,1.80
2019-03-03T02:27:28.464Z,1.97
2019-03-03T02:29:58.185Z,1.70
2019-03-03T02:32:28.157Z,1.40
2019-03-03T02:34:57.930Z,1.80
2019-03-03T02:37:27.599Z,2.47
2019-03-03T02:39:57.722Z,2.00
2019-03-03T02:42:27.448Z,2.00
2019-03-03T02:44:57.129Z,2.50
2019-03-03T02:47:27.078Z,2.23
2019-03-03T02:49:56.810Z,1.87
2019-03-03T02:52:26.614Z,2.00
2019-03-03T02:54:56.576Z,2.23
2019-03-03T02:57:26.294Z,2.20
2019-03-03T02:59:56.025Z,2.40
2019-03-03T03:02:51.005Z,1.97
2019-03-03T03:05:28.401Z,2.63
2019-03-03T03:08:05.264Z,1.70
2019-03-03T03:10:41.162Z,1.87
2019-03-03T03:13:19.786Z,2.13
2019-03-03T03:16:08.365Z,2.80
2019-03-03T03:18:56.978Z,1.80
2019-03-03T03:21:36.561Z,2.40
2019-03-03T03:24:25.501Z,2.73
2019-03-03T03:27:01.141Z,1.57
2019-03-03T03:29:45.420Z,1.80
2019-03-03T03:32:48.901Z,2.63
2019-03-03T03:35:25.485Z,1.77
2019-03-03T03:38:17.238Z,1.87
2019-03-03T03:40:59.294Z,2.10
2019-03-03T03:43:46.839Z,1.97
2019-03-03T03:46:27.919Z,1.80
2019-03-03T03:49:34.671Z,1.63
2019-03-03T03:52:26.696Z,1.53
2019-03-03T03:55:27.510Z,1.50
2019-03-03T03:58:23.352Z,1.60
2019-03-03T04:01:20.863Z,1.50
2019-03-03T04:04:12.725Z,1.70
2019-03-03T04:07:07.499Z,1.60
2019-03-03T04:10:15.086Z,1.57
2019-03-03T04:12:59.346Z,1.70
2019-03-03T04:15:48.233Z,1.77
2019-03-03T04:18:42.554Z,1.47
2019-03-03T04:21:31.744Z,1.43
2019-03-03T04:24:39.261Z,1.93
2019-03-03T04:27:46.825Z,1.80
2019-03-03T04:30:36.453Z,2.23
2019-03-03T04:33:36.927Z,1.63
2019-03-03T04:36:24.297Z,1.40
2019-03-03T04:39:17.983Z,1.30
2019-03-03T04:42:17.589Z,1.77
2019-03-03T04:45:17.990Z,1.60
2019-03-03T04:48:06.579Z,1.97
2019-03-03T04:54:23.417Z,1.87
2019-03-03T04:57:31.057Z,1.60
2019-03-03T05:00:19.567Z,1.60
2019-03-03T05:03:27.183Z,2.27
2019-03-03T05:06:34.686Z,1.97
2019-03-03T05:09:25.528Z,1.83
2019-03-03T05:12:37.127Z,1.20
2019-03-03T05:15:44.720Z,1.87
2019-03-03T05:18:52.274Z,1.77
2019-03-03T05:21:41.108Z,2.07
2019-03-03T05:24:34.205Z,1.73
2019-03-03T05:27:01.495Z,2.07
2019-03-03T05:30:10.486Z,1.67
2019-03-03T05:32:59.240Z,2.10
2019-03-03T05:35:48.088Z,1.90
2019-03-03T05:38:36.776Z,1.90
2019-03-03T05:41:17.534Z,1.73
2019-03-03T05:43:58.403Z,1.97
2019-03-03T05:46:40.034Z,2.20
2019-03-03T05:49:10.134Z,2.27
2019-03-03T05:51:58.836Z,1.63
2019-03-03T05:54:40.752Z,1.93
2019-03-03T05:57:00.380Z,1.80
2019-03-03T05:59:30.257Z,2.43
2019-03-03T06:02:39.624Z,1.80
2019-03-03T06:05:28.324Z,1.90
2019-03-03T06:07:58.345Z,1.80
2019-03-03T06:13:37.623Z,1.97
2019-03-03T06:19:16.924Z,2.43
2019-03-03T06:28:14.455Z,2.90
2019-03-03T06:30:44.486Z,2.20
2019-03-03T06:33:14.239Z,2.63
2019-03-03T06:35:43.960Z,2.50
2019-03-03T06:38:13.996Z,2.87
2019-03-03T06:40:43.693Z,2.30
2019-03-03T06:43:13.355Z,2.20
2019-03-03T06:46:02.213Z,2.43
2019-03-03T06:48:50.918Z,1.83
2019-03-03T06:51:32.462Z,2.00
2019-03-03T06:54:13.750Z,1.77
2019-03-03T06:56:55.310Z,1.50
2019-03-03T06:59:36.196Z,2.90
2019-03-03T07:02:17.465Z,1.90
2019-03-03T07:04:58.622Z,2.07
2019-03-03T07:07:40.264Z,1.77
2019-03-03T07:10:21.925Z,2.00
2019-03-03T07:13:03.567Z,1.80
2019-03-03T07:15:45.185Z,2.13
2019-03-03T07:18:26.681Z,1.77
2019-03-03T07:21:08.345Z,2.03
2019-03-03T07:23:49.782Z,1.80
2019-03-03T07:26:31.258Z,1.63
2019-03-03T07:29:12.076Z,1.43
2019-03-03T07:31:52.998Z,1.43
2019-03-03T07:34:34.413Z,2.00
2019-03-03T07:37:04.549Z,1.40
2019-03-03T07:39:34.179Z,1.67
2019-03-03T07:42:04.024Z,1.53
2019-03-03T07:44:34.996Z,1.60
2019-03-03T07:47:04.806Z,1.60
2019-03-03T07:49:34.549Z,1.40
2019-03-03T07:52:04.538Z,2.03
2019-03-03T07:54:34.317Z,1.17
2019-03-03T07:57:04.094Z,1.40
2019-03-03T07:59:34.097Z,1.17
2019-03-03T08:02:03.795Z,1.37
2019-03-03T08:04:33.485Z,1.30
2019-03-03T08:07:03.483Z,2.37
2019-03-03T08:09:33.329Z,2.43
2019-03-03T08:12:03.049Z,1.63
2019-03-03T08:14:33.110Z,2.43
2019-03-03T08:17:02.811Z,1.43
2019-03-03T08:19:32.605Z,1.33
2019-03-03T08:22:02.567Z,1.80
2019-03-03T08:24:32.286Z,1.60
2019-03-03T08:27:02.044Z,1.60
2019-03-03T08:29:32.031Z,1.30
2019-03-03T08:32:01.726Z,2.20
2019-03-03T08:34:31.522Z,1.93
2019-03-03T08:37:01.516Z,1.50
2019-03-03T08:39:31.230Z,1.60
2019-03-03T08:42:22.596Z,1.97
2019-03-03T08:45:09.815Z,1.60
2019-03-03T08:47:52.859Z,1.60
2019-03-03T08:50:29.939Z,1.90
2019-03-03T08:53:21.489Z,1.57
2019-03-03T08:56:29.631Z,1.40
2019-03-03T08:59:16.458Z,1.50
2019-03-03T09:02:14.162Z,1.20
2019-03-03T09:05:02.804Z,1.20
2019-03-03T09:07:47.470Z,1.00
2019-03-03T09:10:28.365Z,1.00
2019-03-03T09:13:26.014Z,0.80
2019-03-03T09:16:23.896Z,1.17
2019-03-03T09:19:04.819Z,0.90
2019-03-03T09:21:52.052Z,1.43
2019-03-03T09:24:43.981Z,0.70
2019-03-03T09:27:32.588Z,0.73
2019-03-03T09:30:24.355Z,0.77
2019-03-03T09:33:11.619Z,1.27
2019-03-03T09:36:03.485Z,0.50
2019-03-03T09:38:40.249Z,0.90
2019-03-03T09:41:20.003Z,0.70
2019-03-03T09:44:14.699Z,0.50
2019-03-03T09:47:09.277Z,0.60
2019-03-03T09:49:45.865Z,0.53
2019-03-03T09:52:34.486Z,0.43
2019-03-03T09:55:31.671Z,0.70
2019-03-03T09:58:15.594Z,0.60
2019-03-03T10:00:55.841Z,0.70
2019-03-03T10:03:32.327Z,0.50
2019-03-03T10:06:19.692Z,0.47
2019-03-03T10:09:20.473Z,0.50
2019-03-03T10:11:58.312Z,0.60
2019-03-03T10:14:42.573Z,0.60
2019-03-03T10:17:28.695Z,0.43
2019-03-03T10:20:20.146Z,0.50
2019-03-03T10:23:03.154Z,0.57
2019-03-03T10:25:54.661Z,0.73
2019-03-03T10:29:01.819Z,0.50
2019-03-03T10:31:44.814Z,0.60
2019-03-03T10:34:51.443Z,0.60
2019-03-03T10:37:57.844Z,0.60
2019-03-03T10:40:46.798Z,0.50
2019-03-03T10:43:21.655Z,0.60
2019-03-03T10:46:12.043Z,0.50
2019-03-03T10:49:00.628Z,0.50
2019-03-03T10:51:39.001Z,0.57
2019-03-03T10:54:17.770Z,0.50
2019-03-03T10:57:04.832Z,0.50
2019-03-03T10:59:55.127Z,0.80
2019-03-03T11:02:30.261Z,0.90
2019-03-03T11:05:18.876Z,0.50
2019-03-03T11:08:25.553Z,0.60
2019-03-03T11:11:19.950Z,0.50
2019-03-03T11:14:15.759Z,0.50
2019-03-03T11:16:53.503Z,0.60
2019-03-03T11:19:45.476Z,0.60
2019-03-03T11:22:52.077Z,0.60
2019-03-03T11:25:40.155Z,0.50
2019-03-03T11:28:28.377Z,0.60
2019-03-03T11:31:17.469Z,0.50
2019-03-03T11:34:24.319Z,0.50
2019-03-03T11:37:21.668Z,0.60
2019-03-03T11:40:01.740Z,0.40
2019-03-03T11:42:37.886Z,0.50
2019-03-03T11:45:29.844Z,1.47
2019-03-03T11:48:08.842Z,0.87
2019-03-03T11:50:52.396Z,0.80
2019-03-03T11:53:31.441Z,1.10
2019-03-03T11:56:25.836Z,2.00
2019-03-03T11:59:29.761Z,2.00
2019-03-03T12:02:18.411Z,0.80
2019-03-03T12:05:19.652Z,1.10
2019-03-03T12:08:11.270Z,0.80
2019-03-03T12:10:55.120Z,1.00
2019-03-03T12:13:55.568Z,1.40
2019-03-03T12:16:39.782Z,1.97
2019-03-03T12:19:26.076Z,1.97
2019-03-03T12:22:13.488Z,1.33
2019-03-03T12:25:07.974Z,1.57
2019-03-03T12:27:46.766Z,1.50
2019-03-03T12:30:41.374Z,1.27
2019-03-03T12:33:20.548Z,1.73
2019-03-03T12:36:07.174Z,1.30
2019-03-03T12:38:56.237Z,1.67
2019-03-03T12:41:44.891Z,1.40
2019-03-03T12:44:34.965Z,1.67
2019-03-03T12:47:29.454Z,1.70
2019-03-03T12:50:34.372Z,1.53
2019-03-03T12:53:19.690Z,1.40
2019-03-03T12:55:58.554Z,1.53
2019-03-03T12:58:37.696Z,1.40
2019-03-03T13:01:25.602Z,2.37
2019-03-03T13:04:16.979Z,2.10
2019-03-03T13:07:04.634Z,1.83
2019-03-03T13:09:44.338Z,2.10
2019-03-03T13:12:26.842Z,1.90
2019-03-03T13:15:13.770Z,1.70
2019-03-03T13:18:02.967Z,1.80
2019-03-03T13:20:57.696Z,1.80
2019-03-03T13:23:55.675Z,2.27
2019-03-03T13:26:42.730Z,3.10
2019-03-03T13:29:50.158Z,4.10
2019-03-03T13:32:38.830Z,2.70
2019-03-03T13:35:24.402Z,2.30
2019-03-03T13:38:13.144Z,2.80
2019-03-03T13:41:00.837Z,3.07
2019-03-03T13:43:39.267Z,2.70
2019-03-03T13:46:09.392Z,4.00
2019-03-03T13:48:39.189Z,3.30
2019-03-03T13:51:09.093Z,3.53
2019-03-03T13:53:38.956Z,2.80
2019-03-03T13:56:08.768Z,1.93
2019-03-03T13:58:39.016Z,2.60
2019-03-03T14:01:09.035Z,3.10
2019-03-03T14:03:38.837Z,2.03
2019-03-03T14:06:09.084Z,1.87
2019-03-03T14:08:38.878Z,2.83
2019-03-03T14:11:09.403Z,2.40
2019-03-03T14:13:40.496Z,2.53
2019-03-03T14:16:10.548Z,2.40
2019-03-03T14:18:42.016Z,4.03
2019-03-03T14:21:14.799Z,3.50
2019-03-03T14:23:44.537Z,2.90
2019-03-03T14:26:14.501Z,2.47
2019-03-03T14:28:44.618Z,2.27
2019-03-03T14:31:14.451Z,2.40
2019-03-03T14:33:44.223Z,2.50
2019-03-03T14:36:14.475Z,2.80
2019-03-03T14:38:44.471Z,2.43
2019-03-03T14:41:14.414Z,2.47
2019-03-03T14:43:44.675Z,2.80
2019-03-03T14:46:14.494Z,2.20
2019-03-03T14:48:44.355Z,3.57
2019-03-03T14:51:14.637Z,2.70
2019-03-03T14:53:44.473Z,2.87
2019-03-03T14:56:14.524Z,3.40
2019-03-03T14:58:45.663Z,3.73
2019-03-03T15:01:15.938Z,2.63
2019-03-03T15:03:45.866Z,2.27
2019-03-03T15:06:24.180Z,4.00
2019-03-03T15:08:47.577Z,2.40
2019-03-03T15:11:17.525Z,2.27
2019-03-03T15:13:47.752Z,2.70
2019-03-03T15:16:17.805Z,1.93
2019-03-03T15:18:49.087Z,2.90
2019-03-03T15:21:25.064Z,2.47
2019-03-03T15:23:51.250Z,3.37
2019-03-03T15:26:21.674Z,3.47
2019-03-03T15:28:51.578Z,2.87
2019-03-03T15:31:21.558Z,2.47
2019-03-03T15:33:51.687Z,2.67
2019-03-03T15:36:21.503Z,2.03
2019-03-03T15:38:51.331Z,1.73
2019-03-03T15:41:21.661Z,2.33
2019-03-03T15:43:51.597Z,2.27
2019-03-03T15:46:21.375Z,1.93
2019-03-03T15:48:51.671Z,1.83
2019-03-03T15:51:21.536Z,2.20
2019-03-03T15:53:51.636Z,1.80
2019-03-03T15:56:23.483Z,1.70
2019-03-03T15:58:56.447Z,2.17
2019-03-03T16:01:26.528Z,2.17
2019-03-03T16:03:59.609Z,2.47
2019-03-03T16:06:29.480Z,2.13
2019-03-03T16:08:59.265Z,1.97
2019-03-03T16:11:29.469Z,2.50
2019-03-03T16:13:59.291Z,1.93
2019-03-03T16:16:29.036Z,2.47
2019-03-03T16:18:59.159Z,2.10
2019-03-03T16:21:28.935Z,2.10
2019-03-03T16:23:58.946Z,1.93
2019-03-03T16:26:29.772Z,2.27
2019-03-03T16:28:59.832Z,2.17
2019-03-03T16:31:29.675Z,1.60
2019-03-03T16:33:59.889Z,1.73
2019-03-03T16:36:29.698Z,2.20
2019-03-03T16:38:59.550Z,1.57
2019-03-03T16:41:29.622Z,1.97
2019-03-03T16:43:59.535Z,1.93
2019-03-03T16:46:29.290Z,3.20
2019-03-03T16:48:59.549Z,4.77
2019-03-03T16:51:29.390Z,2.33
2019-03-03T16:54:04.615Z,1.63
2019-03-03T16:56:34.858Z,2.80
2019-03-03T16:59:04.656Z,2.23
2019-03-03T17:01:34.459Z,2.60
2019-03-03T17:04:04.638Z,1.70
2019-03-03T17:06:34.549Z,2.33
2019-03-03T17:09:05.321Z,2.43
2019-03-03T17:11:35.666Z,1.57
2019-03-03T17:14:08.624Z,1.97
2019-03-03T17:16:38.417Z,1.87
2019-03-03T17:19:08.184Z,2.03
2019-03-03T17:21:38.429Z,2.23
2019-03-03T17:24:08.311Z,2.17
2019-03-03T17:26:38.218Z,1.80
2019-03-03T17:29:08.297Z,2.20
2019-03-03T17:31:38.057Z,1.80
2019-03-03T17:34:13.112Z,2.47
2019-03-03T17:36:39.695Z,1.77
2019-03-03T17:39:09.634Z,2.23
2019-03-03T17:41:41.122Z,2.90
2019-03-03T17:44:16.061Z,2.20
2019-03-03T17:46:48.275Z,2.13
2019-03-03T17:49:20.434Z,2.97
2019-03-03T17:51:53.162Z,2.40
2019-03-03T17:54:23.075Z,2.00
2019-03-03T17:56:52.872Z,2.43
2019-03-03T17:59:22.901Z,2.17
2019-03-03T18:01:53.019Z,2.23
2019-03-03T18:04:22.892Z,3.50
2019-03-03T18:06:53.006Z,3.27
2019-03-03T18:09:22.912Z,3.00
2019-03-03T18:11:52.659Z,3.40
2019-03-03T18:14:22.754Z,2.17
2019-03-03T18:17:11.563Z,2.13
2019-03-03T18:23:09.726Z,2.23
2019-03-03T18:25:58.629Z,2.00
2019-03-03T18:28:28.516Z,2.13
2019-03-03T18:31:17.209Z,2.27
2019-03-03T18:34:05.996Z,1.83
2019-03-03T18:36:36.074Z,3.00
2019-03-03T18:39:26.912Z,2.17
2019-03-03T18:41:56.976Z,2.47
2019-03-03T18:44:45.739Z,2.50
2019-03-03T18:47:15.902Z,3.10
2019-03-03T18:49:45.722Z,1.97
2019-03-03T18:52:15.579Z,2.23
2019-03-03T18:55:24.657Z,2.23
2019-03-03T18:57:54.533Z,2.27
2019-03-03T19:00:45.433Z,2.60
2019-03-03T19:03:15.502Z,1.97
2019-03-03T19:06:04.494Z,2.10
2019-03-03T19:08:34.322Z,2.33
2019-03-03T19:14:14.082Z,2.67
2019-03-03T19:17:03.182Z,2.43
2019-03-03T19:25:17.421Z,2.33
2019-03-03T19:28:06.151Z,2.13
2019-03-03T19:30:36.252Z,1.90
2019-03-03T19:36:36.811Z,2.13
2019-03-03T19:39:25.519Z,1.83
2019-03-03T19:41:55.595Z,1.50
2019-03-03T19:44:26.784Z,1.30
2019-03-03T19:47:15.653Z,1.87
2019-03-03T19:49:45.938Z,1.80
2019-03-03T19:52:27.371Z,2.23
2019-03-03T19:55:08.507Z,1.60
2019-03-03T19:57:49.662Z,1.47
2019-03-03T20:00:35.027Z,1.90
2019-03-03T20:03:34.960Z,1.50
2019-03-03T20:06:23.837Z,2.00
2019-03-03T20:08:55.008Z,2.50
2019-03-03T20:11:46.168Z,1.80
2019-03-03T20:14:55.200Z,2.13
2019-03-03T20:17:44.085Z,1.70
2019-03-03T20:20:32.949Z,1.70
2019-03-03T20:23:21.918Z,1.77
2019-03-03T20:26:10.810Z,1.27
2019-03-03T20:28:59.786Z,2.00
2019-03-03T20:31:48.587Z,1.43
2019-03-03T20:34:37.337Z,1.63
2019-03-03T20:37:26.129Z,1.70
2019-03-03T20:40:15.199Z,1.70
2019-03-03T20:43:04.063Z,1.40
2019-03-03T20:48:43.363Z,1.33
2019-03-03T20:51:13.512Z,1.90
2019-03-03T20:53:43.349Z,1.70
2019-03-03T20:56:13.234Z,1.73
2019-03-03T20:58:43.332Z,1.57
2019-03-03T21:01:14.066Z,1.90
2019-03-03T21:03:43.892Z,1.13
2019-03-03T21:06:16.074Z,1.20
2019-03-03T21:08:46.022Z,1.60
2019-03-03T21:11:15.912Z,1.40
2019-03-03T21:13:46.950Z,1.83
2019-03-03T21:16:16.712Z,1.40
2019-03-03T21:18:46.782Z,1.90
2019-03-03T21:21:16.963Z,1.33
2019-03-03T21:23:46.785Z,1.33
2019-03-03T21:26:16.636Z,1.30
2019-03-03T21:28:48.986Z,1.30
2019-03-03T21:31:18.868Z,1.30
2019-03-03T21:33:48.772Z,1.00
2019-03-03T21:36:21.166Z,1.60
2019-03-03T21:38:51.107Z,1.40
2019-03-03T21:41:21.060Z,2.10
2019-03-03T21:43:51.254Z,1.50
2019-03-03T21:46:21.157Z,1.40
2019-03-03T21:48:51.007Z,1.20
2019-03-03T21:51:21.137Z,1.20
2019-03-03T21:53:51.089Z,1.20
2019-03-03T21:56:21.246Z,1.20
2019-03-03T21:58:51.342Z,1.10
2019-03-03T22:01:21.256Z,1.43
2019-03-03T22:03:52.048Z,2.40
2019-03-03T22:06:22.127Z,4.03
2019-03-03T22:08:51.940Z,1.57
2019-03-03T22:11:21.806Z,1.50
2019-03-03T22:13:55.906Z,1.40
2019-03-03T22:16:25.732Z,1.10
2019-03-03T22:18:55.516Z,1.00
2019-03-03T22:21:25.601Z,1.10
2019-03-03T22:23:55.367Z,1.17
2019-03-03T22:26:25.208Z,1.23
2019-03-03T22:28:58.764Z,1.00
2019-03-03T22:31:28.583Z,0.90
2019-03-03T22:33:58.354Z,1.13
2019-03-03T22:36:28.474Z,1.33
2019-03-03T22:38:58.300Z,1.00
2019-03-03T22:41:28.096Z,1.83
2019-03-03T22:43:58.236Z,1.10
2019-03-03T22:46:28.188Z,1.00
2019-03-03T22:48:58.007Z,1.03
2019-03-03T22:51:28.091Z,1.07
2019-03-03T22:53:57.852Z,0.90
2019-03-03T22:56:27.666Z,1.20
2019-03-03T22:58:57.729Z,0.90
2019-03-03T23:01:37.623Z,0.80
2019-03-03T23:04:47.311Z,1.07
2019-03-03T23:07:24.980Z,1.63
2019-03-03T23:10:31.778Z,1.07
2019-03-03T23:13:26.323Z,1.00
2019-03-03T23:16:37.118Z,0.80
2019-03-03T23:20:02.894Z,0.80
2019-03-03T23:23:03.521Z,0.70
2019-03-03T23:25:58.389Z,0.80
2019-03-03T23:28:28.469Z,1.20
2019-03-03T23:30:58.619Z,1.17
2019-03-03T23:33:28.499Z,0.70
2019-03-03T23:35:58.550Z,0.70
2019-03-03T23:38:28.298Z,0.70
2019-03-03T23:40:58.557Z,0.90
2019-03-03T23:43:28.577Z,0.80
2019-03-03T23:45:58.397Z,0.80
2019-03-03T23:48:29.338Z,1.07
2019-03-03T23:50:59.671Z,0.87
2019-03-03T23:53:29.376Z,1.20
2019-03-03T23:55:59.116Z,0.80
2019-03-03T23:58:29.178Z,0.80
